sensor_id;sensor_type;location;lat;lon;timestamp;pressure;altitude;pressure_sealevel;temperature;humidity
55540;BME280;41384;51.418;7.286;2022-12-18T00:01:51;100997.53;;;-1.24;68.21
55540;BME280;41384;51.418;7.286;2022-12-18T00:04:22;101008.19;;;-1.28;68.16
55540;BME280;41384;51.418;7.286;2022-12-18T00:06:47;101000.47;;;-1.03;68.37
55540;BME280;41384;51.418;7.286;2022-12-18T00:09:13;100999.00;;;-1.07;67.44
55540;BME280;41384;51.418;7.286;2022-12-18T00:11:38;101002.06;;;-0.87;67.86
55540;BME280;41384;51.418;7.286;2022-12-18T00:14:03;101005.50;;;-1.27;67.47
55540;BME280;41384;51.418;7.286;2022-12-18T00:16:29;101007.81;;;-1.09;67.00
55540;BME280;41384;51.418;7.286;2022-12-18T00:18:58;101013.75;;;-1.07;67.79
55540;BME280;41384;51.418;7.286;2022-12-18T00:21:26;101028.97;;;-1.03;66.73
55540;BME280;41384;51.418;7.286;2022-12-18T00:23:52;101024.47;;;-0.73;66.92
55540;BME280;41384;51.418;7.286;2022-12-18T00:26:20;101033.16;;;-0.74;66.58
55540;BME280;41384;51.418;7.286;2022-12-18T00:28:46;101028.41;;;-0.67;66.05
55540;BME280;41384;51.418;7.286;2022-12-18T00:31:19;101020.53;;;-0.53;65.46
55540;BME280;41384;51.418;7.286;2022-12-18T00:33:44;101019.44;;;-0.89;65.45
55540;BME280;41384;51.418;7.286;2022-12-18T00:36:13;101009.22;;;-0.78;65.30
55540;BME280;41384;51.418;7.286;2022-12-18T00:38:39;101013.16;;;-1.25;66.60
55540;BME280;41384;51.418;7.286;2022-12-18T00:41:05;101010.78;;;-0.62;65.59
55540;BME280;41384;51.418;7.286;2022-12-18T00:43:30;101015.34;;;-0.79;65.18
55540;BME280;41384;51.418;7.286;2022-12-18T00:45:56;101014.25;;;-0.89;64.32
55540;BME280;41384;51.418;7.286;2022-12-18T00:48:22;101003.41;;;-0.68;65.22
55540;BME280;41384;51.418;7.286;2022-12-18T00:50:48;101010.88;;;-0.64;64.79
55540;BME280;41384;51.418;7.286;2022-12-18T00:53:14;101003.81;;;-0.88;65.37
55540;BME280;41384;51.418;7.286;2022-12-18T00:55:40;101001.94;;;-0.85;64.16
55540;BME280;41384;51.418;7.286;2022-12-18T00:58:07;101015.22;;;-0.77;64.50
55540;BME280;41384;51.418;7.286;2022-12-18T01:00:33;101011.91;;;-0.79;64.92
55540;BME280;41384;51.418;7.286;2022-12-18T01:02:58;101022.47;;;-0.56;64.71
55540;BME280;41384;51.418;7.286;2022-12-18T01:05:24;101012.22;;;-0.45;64.31
55540;BME280;41384;51.418;7.286;2022-12-18T01:07:50;101002.03;;;-0.48;64.91
55540;BME280;41384;51.418;7.286;2022-12-18T01:10:15;100998.22;;;-0.81;65.64
55540;BME280;41384;51.418;7.286;2022-12-18T01:12:40;100998.00;;;-0.52;65.04
55540;BME280;41384;51.418;7.286;2022-12-18T01:15:06;101010.34;;;-0.30;65.14
55540;BME280;41384;51.418;7.286;2022-12-18T01:17:32;101014.28;;;-0.37;64.73
55540;BME280;41384;51.418;7.286;2022-12-18T01:19:57;101012.97;;;-0.43;65.06
55540;BME280;41384;51.418;7.286;2022-12-18T01:22:23;101015.44;;;-0.28;65.13
55540;BME280;41384;51.418;7.286;2022-12-18T01:24:48;101020.13;;;-0.72;65.76
55540;BME280;41384;51.418;7.286;2022-12-18T01:27:13;101016.59;;;-0.33;65.97
55540;BME280;41384;51.418;7.286;2022-12-18T01:29:39;101018.75;;;-0.52;65.10
55540;BME280;41384;51.418;7.286;2022-12-18T01:32:04;101026.13;;;-0.33;65.95
55540;BME280;41384;51.418;7.286;2022-12-18T01:34:29;101035.66;;;-0.72;66.02
55540;BME280;41384;51.418;7.286;2022-12-18T01:36:54;101034.72;;;-0.59;66.94
55540;BME280;41384;51.418;7.286;2022-12-18T01:39:20;101023.72;;;-0.75;66.37
55540;BME280;41384;51.418;7.286;2022-12-18T01:41:45;101026.63;;;-0.67;66.63
55540;BME280;41384;51.418;7.286;2022-12-18T01:44:55;101024.47;;;-0.86;67.36
55540;BME280;41384;51.418;7.286;2022-12-18T01:47:23;101020.94;;;-0.72;67.65
55540;BME280;41384;51.418;7.286;2022-12-18T01:49:50;101011.78;;;-0.91;67.84
55540;BME280;41384;51.418;7.286;2022-12-18T01:52:16;101012.22;;;-0.84;67.51
55540;BME280;41384;51.418;7.286;2022-12-18T01:54:43;101012.31;;;-0.85;67.44
55540;BME280;41384;51.418;7.286;2022-12-18T01:57:08;101004.81;;;-0.90;67.19
55540;BME280;41384;51.418;7.286;2022-12-18T01:59:35;101010.81;;;-1.15;68.55
55540;BME280;41384;51.418;7.286;2022-12-18T02:02:02;101004.50;;;-1.11;68.64
55540;BME280;41384;51.418;7.286;2022-12-18T02:04:28;100994.34;;;-1.14;68.71
55540;BME280;41384;51.418;7.286;2022-12-18T02:07:06;100986.69;;;-0.90;68.71
55540;BME280;41384;51.418;7.286;2022-12-18T02:09:41;100997.06;;;-0.90;68.75
55540;BME280;41384;51.418;7.286;2022-12-18T02:12:13;100994.34;;;-1.01;69.22
55540;BME280;41384;51.418;7.286;2022-12-18T02:17:45;101012.56;;;-1.29;69.45
55540;BME280;41384;51.418;7.286;2022-12-18T02:20:35;101010.69;;;-0.74;68.83
55540;BME280;41384;51.418;7.286;2022-12-18T02:23:21;101002.47;;;-0.80;68.40
55540;BME280;41384;51.418;7.286;2022-12-18T02:28:25;100991.03;;;-1.04;68.40
55540;BME280;41384;51.418;7.286;2022-12-18T02:30:56;100989.38;;;-1.18;68.72
55540;BME280;41384;51.418;7.286;2022-12-18T02:33:23;100984.25;;;-1.19;69.48
55540;BME280;41384;51.418;7.286;2022-12-18T02:35:51;100979.41;;;-1.24;69.53
55540;BME280;41384;51.418;7.286;2022-12-18T02:38:17;100979.59;;;-1.14;69.91
55540;BME280;41384;51.418;7.286;2022-12-18T02:40:43;100977.34;;;-1.06;69.43
55540;BME280;41384;51.418;7.286;2022-12-18T02:43:11;100979.00;;;-1.18;69.78
55540;BME280;41384;51.418;7.286;2022-12-18T02:45:47;100985.28;;;-1.35;69.64
55540;BME280;41384;51.418;7.286;2022-12-18T02:48:13;100977.97;;;-1.02;69.32
55540;BME280;41384;51.418;7.286;2022-12-18T02:50:45;100993.97;;;-0.82;68.73
55540;BME280;41384;51.418;7.286;2022-12-18T02:56:01;100997.81;;;-1.28;68.92
55540;BME280;41384;51.418;7.286;2022-12-18T03:01:24;100986.59;;;-0.89;68.45
55540;BME280;41384;51.418;7.286;2022-12-18T03:04:01;100992.41;;;-0.98;69.03
55540;BME280;41384;51.418;7.286;2022-12-18T03:06:32;100997.09;;;-1.30;69.36
55540;BME280;41384;51.418;7.286;2022-12-18T03:09:06;100998.56;;;-1.26;69.55
55540;BME280;41384;51.418;7.286;2022-12-18T03:11:34;100988.56;;;-1.05;69.54
55540;BME280;41384;51.418;7.286;2022-12-18T03:14:21;100988.31;;;-1.15;68.76
55540;BME280;41384;51.418;7.286;2022-12-18T03:16:49;100993.13;;;-0.96;69.02
55540;BME280;41384;51.418;7.286;2022-12-18T03:19:18;100981.91;;;-1.09;69.59
55540;BME280;41384;51.418;7.286;2022-12-18T03:21:47;100977.16;;;-0.90;68.81
55540;BME280;41384;51.418;7.286;2022-12-18T03:24:15;100986.91;;;-0.80;68.97
55540;BME280;41384;51.418;7.286;2022-12-18T03:26:44;100980.38;;;-0.73;68.33
55540;BME280;41384;51.418;7.286;2022-12-18T03:29:42;100990.44;;;-0.81;68.14
55540;BME280;41384;51.418;7.286;2022-12-18T03:32:15;100970.19;;;-0.89;68.24
55540;BME280;41384;51.418;7.286;2022-12-18T03:34:47;100966.69;;;-0.75;68.04
55540;BME280;41384;51.418;7.286;2022-12-18T03:37:14;100968.03;;;-0.82;67.86
55540;BME280;41384;51.418;7.286;2022-12-18T03:39:39;100968.13;;;-0.71;67.82
55540;BME280;41384;51.418;7.286;2022-12-18T03:42:10;100963.16;;;-0.74;68.60
55540;BME280;41384;51.418;7.286;2022-12-18T03:44:57;100957.56;;;-0.68;67.95
55540;BME280;41384;51.418;7.286;2022-12-18T03:53:08;100967.22;;;-0.57;66.59
55540;BME280;41384;51.418;7.286;2022-12-18T03:55:35;100975.16;;;-0.47;67.61
55540;BME280;41384;51.418;7.286;2022-12-18T03:58:02;100970.94;;;-0.87;67.10
55540;BME280;41384;51.418;7.286;2022-12-18T04:00:29;100959.31;;;-0.42;67.16
55540;BME280;41384;51.418;7.286;2022-12-18T04:02:56;100972.19;;;-0.67;66.93
55540;BME280;41384;51.418;7.286;2022-12-18T04:05:25;100964.72;;;-0.46;66.85
55540;BME280;41384;51.418;7.286;2022-12-18T04:07:53;100962.63;;;-0.40;66.52
55540;BME280;41384;51.418;7.286;2022-12-18T04:10:19;100964.63;;;-0.57;65.90
55540;BME280;41384;51.418;7.286;2022-12-18T04:12:44;100963.75;;;-0.32;65.95
55540;BME280;41384;51.418;7.286;2022-12-18T04:15:11;100969.47;;;-0.52;66.15
55540;BME280;41384;51.418;7.286;2022-12-18T04:17:38;100970.09;;;-0.36;66.53
55540;BME280;41384;51.418;7.286;2022-12-18T04:20:04;100962.19;;;-0.47;65.99
55540;BME280;41384;51.418;7.286;2022-12-18T04:22:29;100965.25;;;-0.66;65.92
55540;BME280;41384;51.418;7.286;2022-12-18T04:24:55;100976.22;;;-0.50;66.14
55540;BME280;41384;51.418;7.286;2022-12-18T04:27:20;100965.63;;;-0.47;65.97
55540;BME280;41384;51.418;7.286;2022-12-18T04:29:45;100963.34;;;-0.38;65.95
55540;BME280;41384;51.418;7.286;2022-12-18T04:32:11;100966.50;;;-0.09;65.06
55540;BME280;41384;51.418;7.286;2022-12-18T04:34:36;100970.91;;;-0.35;65.52
55540;BME280;41384;51.418;7.286;2022-12-18T04:37:01;100973.78;;;-0.14;65.71
55540;BME280;41384;51.418;7.286;2022-12-18T04:39:26;100962.31;;;0.02;65.15
55540;BME280;41384;51.418;7.286;2022-12-18T04:41:52;100964.06;;;-0.36;63.63
55540;BME280;41384;51.418;7.286;2022-12-18T04:44:17;100961.13;;;-0.19;64.57
55540;BME280;41384;51.418;7.286;2022-12-18T04:46:42;100963.22;;;-0.24;63.50
55540;BME280;41384;51.418;7.286;2022-12-18T04:49:08;100963.75;;;0.06;63.81
55540;BME280;41384;51.418;7.286;2022-12-18T04:51:35;100959.75;;;0.26;63.36
55540;BME280;41384;51.418;7.286;2022-12-18T04:54:00;100960.06;;;0.21;62.76
55540;BME280;41384;51.418;7.286;2022-12-18T04:56:26;100963.16;;;0.02;62.84
55540;BME280;41384;51.418;7.286;2022-12-18T04:58:51;100956.91;;;0.05;63.66
55540;BME280;41384;51.418;7.286;2022-12-18T05:01:17;100961.84;;;-0.17;63.98
55540;BME280;41384;51.418;7.286;2022-12-18T05:03:43;100949.88;;;-0.06;63.08
55540;BME280;41384;51.418;7.286;2022-12-18T05:06:09;100954.69;;;-0.26;63.05
55540;BME280;41384;51.418;7.286;2022-12-18T05:08:34;100956.06;;;-0.33;62.84
55540;BME280;41384;51.418;7.286;2022-12-18T05:11:05;100952.66;;;-0.34;62.74
55540;BME280;41384;51.418;7.286;2022-12-18T05:13:31;100939.09;;;-0.13;62.46
55540;BME280;41384;51.418;7.286;2022-12-18T05:15:57;100938.13;;;0.25;62.37
55540;BME280;41384;51.418;7.286;2022-12-18T05:18:23;100934.97;;;0.33;61.93
55540;BME280;41384;51.418;7.286;2022-12-18T05:20:49;100939.00;;;0.13;60.58
55540;BME280;41384;51.418;7.286;2022-12-18T05:23:15;100940.63;;;0.03;61.30
55540;BME280;41384;51.418;7.286;2022-12-18T05:25:40;100930.41;;;0.12;62.17
55540;BME280;41384;51.418;7.286;2022-12-18T05:28:05;100931.50;;;0.21;61.74
55540;BME280;41384;51.418;7.286;2022-12-18T05:30:31;100925.75;;;0.05;60.89
55540;BME280;41384;51.418;7.286;2022-12-18T05:32:56;100920.28;;;0.21;61.76
55540;BME280;41384;51.418;7.286;2022-12-18T05:35:21;100921.63;;;0.02;61.00
55540;BME280;41384;51.418;7.286;2022-12-18T05:37:46;100918.16;;;-0.23;61.52
55540;BME280;41384;51.418;7.286;2022-12-18T05:40:12;100923.44;;;0.13;61.51
55540;BME280;41384;51.418;7.286;2022-12-18T05:42:37;100928.38;;;-0.08;61.01
55540;BME280;41384;51.418;7.286;2022-12-18T05:45:03;100930.72;;;0.08;60.98
55540;BME280;41384;51.418;7.286;2022-12-18T05:47:28;100934.75;;;0.12;59.97
55540;BME280;41384;51.418;7.286;2022-12-18T05:49:54;100934.41;;;-0.08;59.38
55540;BME280;41384;51.418;7.286;2022-12-18T05:52:19;100930.47;;;0.24;59.03
55540;BME280;41384;51.418;7.286;2022-12-18T05:54:44;100938.22;;;-0.01;59.11
55540;BME280;41384;51.418;7.286;2022-12-18T05:57:10;100945.72;;;0.04;59.27
55540;BME280;41384;51.418;7.286;2022-12-18T05:59:35;100949.41;;;0.13;59.04
55540;BME280;41384;51.418;7.286;2022-12-18T06:02:00;100948.84;;;0.21;58.63
55540;BME280;41384;51.418;7.286;2022-12-18T06:04:27;100953.50;;;0.04;58.78
55540;BME280;41384;51.418;7.286;2022-12-18T06:06:53;100953.66;;;0.14;59.44
55540;BME280;41384;51.418;7.286;2022-12-18T06:09:19;100955.50;;;0.25;60.01
55540;BME280;41384;51.418;7.286;2022-12-18T06:11:44;100963.88;;;0.28;58.81
55540;BME280;41384;51.418;7.286;2022-12-18T06:14:09;100966.97;;;0.09;58.58
55540;BME280;41384;51.418;7.286;2022-12-18T06:16:35;100975.28;;;-0.36;59.34
55540;BME280;41384;51.418;7.286;2022-12-18T06:19:02;100977.25;;;-0.52;60.95
55540;BME280;41384;51.418;7.286;2022-12-18T06:21:28;100994.16;;;-0.47;60.68
55540;BME280;41384;51.418;7.286;2022-12-18T06:23:54;100992.06;;;-0.93;61.58
55540;BME280;41384;51.418;7.286;2022-12-18T06:26:19;101000.72;;;-0.80;62.03
55540;BME280;41384;51.418;7.286;2022-12-18T06:28:44;101014.09;;;-0.34;61.07
55540;BME280;41384;51.418;7.286;2022-12-18T06:31:10;101004.44;;;-0.45;61.83
55540;BME280;41384;51.418;7.286;2022-12-18T06:33:36;101004.13;;;-0.53;61.76
55540;BME280;41384;51.418;7.286;2022-12-18T06:36:10;100999.47;;;-0.61;60.47
55540;BME280;41384;51.418;7.286;2022-12-18T06:38:37;100997.56;;;-0.33;62.49
55540;BME280;41384;51.418;7.286;2022-12-18T06:41:10;101003.44;;;-0.05;59.77
55540;BME280;41384;51.418;7.286;2022-12-18T06:43:36;100997.81;;;-0.75;58.54
55540;BME280;41384;51.418;7.286;2022-12-18T06:46:02;100998.00;;;-0.39;58.18
55540;BME280;41384;51.418;7.286;2022-12-18T06:48:28;100992.00;;;-0.53;58.93
55540;BME280;41384;51.418;7.286;2022-12-18T06:50:53;100988.78;;;-0.56;59.97
55540;BME280;41384;51.418;7.286;2022-12-18T06:53:19;100984.22;;;-0.66;59.16
55540;BME280;41384;51.418;7.286;2022-12-18T06:55:44;100972.84;;;-0.13;59.17
55540;BME280;41384;51.418;7.286;2022-12-18T06:58:09;100961.91;;;-0.42;60.02
55540;BME280;41384;51.418;7.286;2022-12-18T07:00:35;100963.78;;;-0.45;57.90
55540;BME280;41384;51.418;7.286;2022-12-18T07:03:00;100964.44;;;-0.17;59.15
55540;BME280;41384;51.418;7.286;2022-12-18T07:05:25;100960.03;;;-0.40;58.82
55540;BME280;41384;51.418;7.286;2022-12-18T07:07:51;100957.94;;;-0.48;56.71
55540;BME280;41384;51.418;7.286;2022-12-18T07:10:16;100949.13;;;-0.33;56.58
55540;BME280;41384;51.418;7.286;2022-12-18T07:12:41;100946.78;;;-0.11;57.11
55540;BME280;41384;51.418;7.286;2022-12-18T07:15:07;100943.44;;;-0.01;57.72
55540;BME280;41384;51.418;7.286;2022-12-18T07:17:32;100944.38;;;-0.39;57.75
55540;BME280;41384;51.418;7.286;2022-12-18T07:19:57;100946.78;;;-0.11;57.16
55540;BME280;41384;51.418;7.286;2022-12-18T07:22:25;100931.31;;;-0.13;56.72
55540;BME280;41384;51.418;7.286;2022-12-18T07:24:50;100939.19;;;-0.39;54.89
55540;BME280;41384;51.418;7.286;2022-12-18T07:27:16;100933.88;;;0.00;56.45
55540;BME280;41384;51.418;7.286;2022-12-18T07:29:41;100932.03;;;-0.11;55.04
55540;BME280;41384;51.418;7.286;2022-12-18T07:32:06;100930.44;;;-0.01;55.28
55540;BME280;41384;51.418;7.286;2022-12-18T07:34:32;100921.75;;;-0.12;54.90
55540;BME280;41384;51.418;7.286;2022-12-18T07:36:57;100929.47;;;0.13;55.41
55540;BME280;41384;51.418;7.286;2022-12-18T07:39:22;100930.66;;;-0.04;55.64
55540;BME280;41384;51.418;7.286;2022-12-18T07:41:48;100923.69;;;-0.03;55.01
55540;BME280;41384;51.418;7.286;2022-12-18T07:44:33;100912.78;;;0.05;53.91
55540;BME280;41384;51.418;7.286;2022-12-18T07:46:58;100912.34;;;0.11;53.92
55540;BME280;41384;51.418;7.286;2022-12-18T07:49:23;100905.13;;;0.03;53.78
55540;BME280;41384;51.418;7.286;2022-12-18T07:51:49;100903.69;;;0.35;53.63
55540;BME280;41384;51.418;7.286;2022-12-18T07:54:14;100900.50;;;0.07;53.18
55540;BME280;41384;51.418;7.286;2022-12-18T07:56:40;100912.94;;;-0.10;52.54
55540;BME280;41384;51.418;7.286;2022-12-18T07:59:05;100914.69;;;-0.10;54.22
55540;BME280;41384;51.418;7.286;2022-12-18T08:01:30;100918.50;;;-0.03;52.08
55540;BME280;41384;51.418;7.286;2022-12-18T08:03:57;100933.06;;;0.24;52.78
55540;BME280;41384;51.418;7.286;2022-12-18T08:06:22;100926.47;;;0.31;52.70
55540;BME280;41384;51.418;7.286;2022-12-18T08:08:48;100935.34;;;0.40;51.80
55540;BME280;41384;51.418;7.286;2022-12-18T08:11:13;100924.97;;;0.40;52.99
55540;BME280;41384;51.418;7.286;2022-12-18T08:13:38;100927.56;;;0.40;52.36
55540;BME280;41384;51.418;7.286;2022-12-18T08:16:06;100925.34;;;0.47;52.49
55540;BME280;41384;51.418;7.286;2022-12-18T08:18:35;100921.19;;;0.44;52.19
55540;BME280;41384;51.418;7.286;2022-12-18T08:21:15;100928.38;;;0.65;53.24
55540;BME280;41384;51.418;7.286;2022-12-18T08:23:41;100912.28;;;0.60;52.15
55540;BME280;41384;51.418;7.286;2022-12-18T08:26:07;100909.03;;;0.80;53.06
55540;BME280;41384;51.418;7.286;2022-12-18T08:28:33;100908.28;;;0.55;52.50
55540;BME280;41384;51.418;7.286;2022-12-18T08:30:58;100898.69;;;0.56;51.79
55540;BME280;41384;51.418;7.286;2022-12-18T08:33:23;100894.19;;;0.47;51.02
55540;BME280;41384;51.418;7.286;2022-12-18T08:35:49;100894.47;;;0.66;52.27
55540;BME280;41384;51.418;7.286;2022-12-18T08:38:14;100882.88;;;0.59;51.30
55540;BME280;41384;51.418;7.286;2022-12-18T08:40:39;100873.59;;;0.79;50.77
55540;BME280;41384;51.418;7.286;2022-12-18T08:43:05;100876.63;;;0.62;50.66
55540;BME280;41384;51.418;7.286;2022-12-18T08:45:48;100867.22;;;0.83;50.75
55540;BME280;41384;51.418;7.286;2022-12-18T08:48:14;100869.00;;;0.94;50.42
55540;BME280;41384;51.418;7.286;2022-12-18T08:50:40;100867.81;;;0.98;50.07
55540;BME280;41384;51.418;7.286;2022-12-18T08:53:05;100869.72;;;0.96;50.10
55540;BME280;41384;51.418;7.286;2022-12-18T08:55:30;100863.19;;;0.79;49.51
55540;BME280;41384;51.418;7.286;2022-12-18T08:57:56;100870.28;;;0.77;49.76
55540;BME280;41384;51.418;7.286;2022-12-18T09:00:21;100857.44;;;0.98;49.67
55540;BME280;41384;51.418;7.286;2022-12-18T09:02:47;100864.03;;;1.02;50.58
55540;BME280;41384;51.418;7.286;2022-12-18T09:05:12;100863.81;;;1.17;50.31
55540;BME280;41384;51.418;7.286;2022-12-18T09:07:37;100855.88;;;1.07;49.33
55540;BME280;41384;51.418;7.286;2022-12-18T09:10:03;100856.47;;;1.22;50.13
55540;BME280;41384;51.418;7.286;2022-12-18T09:12:28;100860.09;;;1.31;49.89
55540;BME280;41384;51.418;7.286;2022-12-18T09:14:54;100859.19;;;1.09;50.10
55540;BME280;41384;51.418;7.286;2022-12-18T09:17:19;100856.56;;;1.32;49.57
55540;BME280;41384;51.418;7.286;2022-12-18T09:19:44;100843.53;;;1.55;49.86
55540;BME280;41384;51.418;7.286;2022-12-18T09:22:10;100837.50;;;1.54;49.58
55540;BME280;41384;51.418;7.286;2022-12-18T09:24:35;100838.84;;;1.37;48.67
55540;BME280;41384;51.418;7.286;2022-12-18T09:27:00;100827.00;;;1.44;49.16
55540;BME280;41384;51.418;7.286;2022-12-18T09:29:26;100834.81;;;1.44;49.50
55540;BME280;41384;51.418;7.286;2022-12-18T09:31:51;100846.63;;;1.49;48.92
55540;BME280;41384;51.418;7.286;2022-12-18T09:34:16;100845.19;;;1.56;48.65
55540;BME280;41384;51.418;7.286;2022-12-18T09:36:42;100838.66;;;1.62;48.69
55540;BME280;41384;51.418;7.286;2022-12-18T09:39:07;100843.13;;;1.71;48.89
55540;BME280;41384;51.418;7.286;2022-12-18T09:41:47;100840.81;;;1.89;49.42
55540;BME280;41384;51.418;7.286;2022-12-18T09:44:29;100833.97;;;1.88;48.72
55540;BME280;41384;51.418;7.286;2022-12-18T09:47:10;100822.25;;;1.94;49.12
55540;BME280;41384;51.418;7.286;2022-12-18T09:49:43;100827.31;;;1.95;48.63
55540;BME280;41384;51.418;7.286;2022-12-18T09:52:17;100826.81;;;2.01;49.09
55540;BME280;41384;51.418;7.286;2022-12-18T09:54:49;100844.28;;;1.89;48.64
55540;BME280;41384;51.418;7.286;2022-12-18T09:57:20;100855.72;;;1.98;48.30
55540;BME280;41384;51.418;7.286;2022-12-18T09:59:51;100851.00;;;1.92;46.94
55540;BME280;41384;51.418;7.286;2022-12-18T10:02:20;100860.16;;;1.86;48.06
55540;BME280;41384;51.418;7.286;2022-12-18T10:05:06;100842.03;;;2.17;47.72
55540;BME280;41384;51.418;7.286;2022-12-18T10:07:40;100852.09;;;1.89;47.33
55540;BME280;41384;51.418;7.286;2022-12-18T10:10:39;100847.44;;;1.93;47.29
55540;BME280;41384;51.418;7.286;2022-12-18T10:13:09;100844.03;;;1.93;47.13
55540;BME280;41384;51.418;7.286;2022-12-18T10:21:21;100802.69;;;2.21;47.07
55540;BME280;41384;51.418;7.286;2022-12-18T10:26:21;100778.88;;;2.25;47.01
55540;BME280;41384;51.418;7.286;2022-12-18T10:28:46;100783.34;;;2.44;47.71
55540;BME280;41384;51.418;7.286;2022-12-18T10:31:16;100795.06;;;2.29;46.98
55540;BME280;41384;51.418;7.286;2022-12-18T10:33:42;100795.75;;;2.31;46.81
55540;BME280;41384;51.418;7.286;2022-12-18T10:36:08;100783.75;;;2.40;47.02
55540;BME280;41384;51.418;7.286;2022-12-18T10:38:33;100774.84;;;2.42;47.02
55540;BME280;41384;51.418;7.286;2022-12-18T10:41:05;100775.34;;;2.57;46.92
55540;BME280;41384;51.418;7.286;2022-12-18T10:43:39;100777.94;;;2.57;47.03
55540;BME280;41384;51.418;7.286;2022-12-18T10:48:55;100768.81;;;2.42;46.39
55540;BME280;41384;51.418;7.286;2022-12-18T10:51:36;100766.91;;;2.44;45.96
55540;BME280;41384;51.418;7.286;2022-12-18T10:54:05;100774.63;;;2.76;47.24
55540;BME280;41384;51.418;7.286;2022-12-18T10:56:33;100773.94;;;2.84;47.46
55540;BME280;41384;51.418;7.286;2022-12-18T10:59:08;100760.50;;;2.89;47.37
55540;BME280;41384;51.418;7.286;2022-12-18T11:01:56;100763.91;;;2.80;46.17
55540;BME280;41384;51.418;7.286;2022-12-18T11:04:27;100759.59;;;2.69;47.93
55540;BME280;41384;51.418;7.286;2022-12-18T11:07:07;100759.25;;;2.83;48.96
55540;BME280;41384;51.418;7.286;2022-12-18T11:09:38;100767.75;;;2.85;48.55
55540;BME280;41384;51.418;7.286;2022-12-18T11:12:15;100762.53;;;2.85;47.51
55540;BME280;41384;51.418;7.286;2022-12-18T11:17:18;100757.66;;;2.92;47.70
55540;BME280;41384;51.418;7.286;2022-12-18T11:19:44;100745.16;;;2.96;47.43
55540;BME280;41384;51.418;7.286;2022-12-18T11:22:20;100741.56;;;2.97;47.59
55540;BME280;41384;51.418;7.286;2022-12-18T11:24:54;100747.91;;;2.94;48.90
55540;BME280;41384;51.418;7.286;2022-12-18T11:27:20;100749.25;;;2.88;46.64
55540;BME280;41384;51.418;7.286;2022-12-18T11:29:46;100747.84;;;2.84;47.45
55540;BME280;41384;51.418;7.286;2022-12-18T11:34:42;100734.97;;;2.92;50.14
55540;BME280;41384;51.418;7.286;2022-12-18T11:37:11;100734.97;;;2.92;47.73
55540;BME280;41384;51.418;7.286;2022-12-18T11:39:44;100729.22;;;2.99;48.57
55540;BME280;41384;51.418;7.286;2022-12-18T11:42:16;100720.81;;;2.85;48.51
55540;BME280;41384;51.418;7.286;2022-12-18T11:53:02;100702.19;;;3.00;47.75
55540;BME280;41384;51.418;7.286;2022-12-18T11:55:40;100685.84;;;2.98;47.70
55540;BME280;41384;51.418;7.286;2022-12-18T12:06:50;100665.97;;;3.06;46.21
55540;BME280;41384;51.418;7.286;2022-12-18T12:20:46;100668.31;;;3.10;46.02
55540;BME280;41384;51.418;7.286;2022-12-18T12:23:41;100669.66;;;3.04;44.60
55540;BME280;41384;51.418;7.286;2022-12-18T12:26:13;100666.53;;;3.10;46.50
55540;BME280;41384;51.418;7.286;2022-12-18T12:31:39;100670.19;;;2.98;45.24
55540;BME280;41384;51.418;7.286;2022-12-18T12:34:16;100657.28;;;2.76;43.90
55540;BME280;41384;51.418;7.286;2022-12-18T12:39:36;100654.81;;;2.95;45.02
55540;BME280;41384;51.418;7.286;2022-12-18T12:42:34;100651.91;;;2.78;43.81
55540;BME280;41384;51.418;7.286;2022-12-18T12:45:33;100639.88;;;2.97;45.63
55540;BME280;41384;51.418;7.286;2022-12-18T12:48:01;100652.34;;;2.83;44.79
55540;BME280;41384;51.418;7.286;2022-12-18T12:50:27;100654.53;;;2.68;44.66
55540;BME280;41384;51.418;7.286;2022-12-18T12:52:54;100645.59;;;2.71;44.76
55540;BME280;41384;51.418;7.286;2022-12-18T12:55:24;100653.94;;;2.65;44.84
55540;BME280;41384;51.418;7.286;2022-12-18T13:01:13;100641.75;;;2.75;45.57
55540;BME280;41384;51.418;7.286;2022-12-18T13:06:27;100648.25;;;3.00;46.04
55540;BME280;41384;51.418;7.286;2022-12-18T13:08:55;100648.09;;;2.92;45.97
55540;BME280;41384;51.418;7.286;2022-12-18T13:11:37;100644.94;;;3.08;46.76
55540;BME280;41384;51.418;7.286;2022-12-18T13:14:27;100642.78;;;3.13;46.95
55540;BME280;41384;51.418;7.286;2022-12-18T13:19:44;100633.94;;;2.75;46.72
55540;BME280;41384;51.418;7.286;2022-12-18T13:22:23;100627.66;;;2.77;47.63
55540;BME280;41384;51.418;7.286;2022-12-18T13:24:50;100630.38;;;2.96;46.95
55540;BME280;41384;51.418;7.286;2022-12-18T13:36:08;100639.69;;;2.69;47.72
55540;BME280;41384;51.418;7.286;2022-12-18T13:38:35;100652.59;;;2.70;47.97
55540;BME280;41384;51.418;7.286;2022-12-18T13:46:41;100637.88;;;2.59;48.89
55540;BME280;41384;51.418;7.286;2022-12-18T13:51:42;100642.94;;;2.51;50.24
55540;BME280;41384;51.418;7.286;2022-12-18T13:56:47;100628.09;;;2.42;49.62
55540;BME280;41384;51.418;7.286;2022-12-18T13:59:19;100625.56;;;2.21;50.71
55540;BME280;41384;51.418;7.286;2022-12-18T14:01:48;100617.16;;;2.17;51.11
55540;BME280;41384;51.418;7.286;2022-12-18T14:04:24;100611.31;;;2.25;50.58
55540;BME280;41384;51.418;7.286;2022-12-18T14:06:57;100608.88;;;2.33;51.24
55540;BME280;41384;51.418;7.286;2022-12-18T14:09:24;100609.56;;;2.25;50.70
55540;BME280;41384;51.418;7.286;2022-12-18T14:11:51;100603.88;;;2.20;51.51
55540;BME280;41384;51.418;7.286;2022-12-18T14:14:18;100592.38;;;2.23;51.58
55540;BME280;41384;51.418;7.286;2022-12-18T14:16:45;100591.22;;;1.96;51.79
55540;BME280;41384;51.418;7.286;2022-12-18T14:19:17;100590.22;;;2.28;52.63
55540;BME280;41384;51.418;7.286;2022-12-18T14:21:47;100581.75;;;2.04;51.63
55540;BME280;41384;51.418;7.286;2022-12-18T14:26:39;100562.69;;;2.55;51.67
55540;BME280;41384;51.418;7.286;2022-12-18T14:29:24;100547.72;;;2.27;51.28
55540;BME280;41384;51.418;7.286;2022-12-18T14:32:10;100536.16;;;2.20;51.80
55540;BME280;41384;51.418;7.286;2022-12-18T14:34:37;100536.19;;;2.30;51.86
55540;BME280;41384;51.418;7.286;2022-12-18T14:37:03;100529.09;;;1.91;51.76
55540;BME280;41384;51.418;7.286;2022-12-18T14:39:29;100529.03;;;1.71;51.71
55540;BME280;41384;51.418;7.286;2022-12-18T14:41:54;100526.28;;;2.04;51.41